createdAt,value
2023-03-01T00:02:12.429Z,9.33
2023-03-01T00:04:39.883Z,8.73
2023-03-01T00:07:08.604Z,9.53
2023-03-01T00:09:36.141Z,8.20
2023-03-01T00:12:03.676Z,9.47
2023-03-01T00:14:31.257Z,10.43
2023-03-01T00:16:58.822Z,9.70
2023-03-01T00:19:26.327Z,7.47
2023-03-01T00:21:53.904Z,10.73
2023-03-01T00:24:21.437Z,10.32
2023-03-01T00:26:48.982Z,10.32
2023-03-01T00:29:16.556Z,7.90
2023-03-01T00:31:44.109Z,8.77
2023-03-01T00:34:11.646Z,10.00
2023-03-01T00:36:39.201Z,9.57
2023-03-01T00:39:07.494Z,11.47
2023-03-01T00:41:35.007Z,9.07
2023-03-01T00:44:03.351Z,9.40
2023-03-01T00:46:31.223Z,9.90
2023-03-01T00:48:58.436Z,8.90
2023-03-01T00:51:26.774Z,10.53
2023-03-01T00:53:54.320Z,9.97
2023-03-01T00:56:21.873Z,9.40
2023-03-01T00:58:49.411Z,11.53
2023-03-01T01:01:19.728Z,12.27
2023-03-01T01:03:53.178Z,10.90
2023-03-01T01:06:21.006Z,10.40
2023-03-01T01:08:48.503Z,11.93
2023-03-01T01:11:16.034Z,11.67
2023-03-01T01:13:43.603Z,9.30
2023-03-01T01:16:11.146Z,10.40
2023-03-01T01:18:38.681Z,12.90
2023-03-01T01:21:09.243Z,11.30
2023-03-01T01:23:36.775Z,10.07
2023-03-01T01:26:10.321Z,11.87
2023-03-01T01:28:38.200Z,9.37
2023-03-01T01:31:06.535Z,7.93
2023-03-01T01:33:34.067Z,11.17
2023-03-01T01:36:01.604Z,10.23
2023-03-01T01:38:29.128Z,9.47
2023-03-01T01:40:56.643Z,10.60
2023-03-01T01:43:26.920Z,12.45
2023-03-01T01:46:00.196Z,10.63
2023-03-01T01:48:27.716Z,11.43
2023-03-01T01:50:55.278Z,10.90
2023-03-01T01:53:22.802Z,9.57
2023-03-01T01:55:51.114Z,10.57
2023-03-01T01:58:18.693Z,9.80
2023-03-01T02:00:46.290Z,10.40
2023-03-01T02:03:16.513Z,9.83
2023-03-01T02:05:55.427Z,11.30
2023-03-01T02:08:19.958Z,12.03
2023-03-01T02:10:47.486Z,10.83
2023-03-01T02:13:15.881Z,12.90
2023-03-01T02:15:43.406Z,11.40
2023-03-01T02:18:10.925Z,10.83
2023-03-01T02:21:06.373Z,11.30
2023-03-01T02:23:33.947Z,12.20
2023-03-01T02:26:26.448Z,12.77
2023-03-01T02:28:53.982Z,11.70
2023-03-01T02:31:40.265Z,11.90
2023-03-01T02:34:07.810Z,11.40
2023-03-01T02:36:36.113Z,12.60
2023-03-01T02:39:03.726Z,11.73
2023-03-01T02:41:31.267Z,11.57
2023-03-01T02:43:58.799Z,10.97
2023-03-01T02:46:26.364Z,8.67
2023-03-01T02:48:53.885Z,10.57
2023-03-01T02:51:27.056Z,12.47
2023-03-01T02:53:54.628Z,11.97
2023-03-01T02:56:22.144Z,12.20
2023-03-01T02:58:49.680Z,11.20
2023-03-01T03:01:17.365Z,12.33
2023-03-01T03:03:44.850Z,12.23
2023-03-01T03:06:13.097Z,11.63
2023-03-01T03:08:40.648Z,11.80
2023-03-01T03:11:08.191Z,12.60
2023-03-01T03:13:35.744Z,12.67
2023-03-01T03:16:03.360Z,13.43
2023-03-01T03:18:30.844Z,11.80
2023-03-01T03:20:59.164Z,13.07
2023-03-01T03:23:26.747Z,12.70
2023-03-01T03:25:54.283Z,11.47
2023-03-01T03:28:21.799Z,13.10
2023-03-01T03:30:50.145Z,13.83
2023-03-01T03:33:17.693Z,11.97
2023-03-01T03:35:45.273Z,12.67
2023-03-01T03:38:12.827Z,12.80
2023-03-01T03:40:40.383Z,14.47
2023-03-01T03:43:11.446Z,17.23
2023-03-01T03:45:39.045Z,15.38
2023-03-01T03:48:07.329Z,14.77
2023-03-01T03:50:34.857Z,12.57
2023-03-01T03:53:03.463Z,13.57
2023-03-01T03:55:31.008Z,11.30
2023-03-01T03:57:59.304Z,13.13
2023-03-01T04:00:26.909Z,13.73
2023-03-01T04:02:54.505Z,12.97
2023-03-01T04:05:22.041Z,13.73
2023-03-01T04:07:49.615Z,12.77
2023-03-01T04:10:17.939Z,12.63
2023-03-01T04:12:45.481Z,15.40
2023-03-01T04:15:15.795Z,15.27
2023-03-01T04:17:43.351Z,11.53
2023-03-01T04:20:20.146Z,13.30
2023-03-01T04:22:47.719Z,14.67
2023-03-01T04:25:15.250Z,13.07
2023-03-01T04:27:42.874Z,13.03
2023-03-01T04:30:10.485Z,13.30
2023-03-01T04:32:38.126Z,14.10
2023-03-01T04:35:05.678Z,14.27
2023-03-01T04:37:33.977Z,14.03
2023-03-01T04:40:01.517Z,12.37
2023-03-01T04:42:29.081Z,12.90
2023-03-01T04:44:56.651Z,13.30
2023-03-01T04:47:24.188Z,14.87
2023-03-01T04:49:52.492Z,13.73
2023-03-01T04:52:20.080Z,13.77
2023-03-01T04:54:47.636Z,14.80
2023-03-01T04:57:15.204Z,14.13
2023-03-01T04:59:42.751Z,12.03
2023-03-01T05:02:10.266Z,15.37
2023-03-01T05:04:37.883Z,12.77
2023-03-01T05:07:05.405Z,14.73
2023-03-01T05:09:32.922Z,13.87
2023-03-01T05:12:01.284Z,14.60
2023-03-01T05:14:28.817Z,12.43
2023-03-01T05:16:56.363Z,14.60
2023-03-01T05:19:24.034Z,14.43
2023-03-01T05:22:03.477Z,14.83
2023-03-01T05:24:31.078Z,12.87
2023-03-01T05:26:58.637Z,15.23
2023-03-01T05:29:26.169Z,15.03
2023-03-01T05:31:56.686Z,20.67
2023-03-01T05:34:27.677Z,16.17
2023-03-01T05:36:55.967Z,13.23
2023-03-01T05:39:23.539Z,14.73
2023-03-01T05:41:53.749Z,18.60
2023-03-01T05:44:21.273Z,16.70
2023-03-01T05:46:49.615Z,14.10
2023-03-01T05:49:17.156Z,15.40
2023-03-01T05:51:44.733Z,16.92
2023-03-01T05:54:12.269Z,13.73
2023-03-01T05:56:39.794Z,15.50
2023-03-01T05:59:08.078Z,16.60
2023-03-01T06:01:36.433Z,13.23
2023-03-01T06:04:03.952Z,15.70
2023-03-01T06:06:31.814Z,16.80
2023-03-01T06:08:59.169Z,18.97
2023-03-01T06:11:26.714Z,15.17
2023-03-01T06:13:54.228Z,13.23
2023-03-01T06:16:21.792Z,13.60
2023-03-01T06:18:49.329Z,16.77
2023-03-01T06:21:16.863Z,13.73
2023-03-01T06:23:44.433Z,21.17
2023-03-01T06:26:11.972Z,12.83
2023-03-01T06:28:39.505Z,17.57
2023-03-01T06:31:07.921Z,14.97
2023-03-01T06:33:35.400Z,15.43
2023-03-01T06:36:02.989Z,16.13
2023-03-01T06:38:30.510Z,17.87
2023-03-01T06:40:58.092Z,20.60
2023-03-01T06:43:25.587Z,15.10
2023-03-01T06:45:53.181Z,17.33
2023-03-01T06:48:20.708Z,16.40
2023-03-01T06:50:49.038Z,14.07
2023-03-01T06:53:16.818Z,16.97
2023-03-01T06:55:44.365Z,17.70
2023-03-01T06:58:11.885Z,20.23
2023-03-01T07:00:39.468Z,18.50
2023-03-01T07:03:07.121Z,16.20
2023-03-01T07:05:34.547Z,15.10
2023-03-01T07:08:02.120Z,18.40
2023-03-01T07:10:29.687Z,16.00
2023-03-01T07:13:00.146Z,15.83
2023-03-01T07:15:28.475Z,14.77
2023-03-01T07:17:56.013Z,17.40
2023-03-01T07:20:24.306Z,15.93
2023-03-01T07:22:51.877Z,15.47
2023-03-01T07:25:19.432Z,17.40
2023-03-01T07:27:46.966Z,18.60
2023-03-01T07:30:15.312Z,18.43
2023-03-01T07:32:42.889Z,24.27
2023-03-01T07:35:10.377Z,20.08
2023-03-01T07:37:37.991Z,20.10
2023-03-01T07:40:05.707Z,17.63
2023-03-01T07:42:33.247Z,19.87
2023-03-01T07:45:01.600Z,21.37
2023-03-01T07:47:29.144Z,21.95
2023-03-01T07:49:56.699Z,19.90
2023-03-01T07:52:24.274Z,20.07
2023-03-01T07:54:51.847Z,22.33
2023-03-01T07:57:20.169Z,17.67
2023-03-01T07:59:47.751Z,16.83
2023-03-01T08:02:15.311Z,18.23
2023-03-01T08:04:42.851Z,19.73
2023-03-01T08:07:10.444Z,18.80
2023-03-01T08:09:38.005Z,20.97
2023-03-01T08:12:05.540Z,20.15
2023-03-01T08:14:33.111Z,19.35
2023-03-01T08:17:00.662Z,20.57
2023-03-01T08:19:28.193Z,19.57
2023-03-01T08:21:55.776Z,20.93
2023-03-01T08:24:23.342Z,18.63
2023-03-01T08:26:50.904Z,22.33
2023-03-01T08:29:18.503Z,22.20
2023-03-01T08:31:46.821Z,22.47
2023-03-01T08:34:14.391Z,22.10
2023-03-01T08:36:41.958Z,19.37
2023-03-01T08:39:09.487Z,21.20
2023-03-01T08:41:37.017Z,20.62
2023-03-01T08:44:04.604Z,24.70
2023-03-01T08:46:32.513Z,23.53
2023-03-01T08:49:00.468Z,19.03
2023-03-01T08:51:28.041Z,20.83
2023-03-01T08:53:55.577Z,28.20
2023-03-01T08:56:23.119Z,22.50
2023-03-01T08:58:51.210Z,21.07
2023-03-01T09:01:18.744Z,20.57
2023-03-01T09:03:46.266Z,23.60
2023-03-01T09:06:14.629Z,19.80
2023-03-01T09:08:42.161Z,24.40
2023-03-01T09:11:09.706Z,24.63
2023-03-01T09:13:37.293Z,22.70
2023-03-01T09:16:04.817Z,21.47
2023-03-01T09:18:32.396Z,22.10
2023-03-01T09:21:09.583Z,22.37
2023-03-01T09:23:39.963Z,22.90
2023-03-01T09:26:07.450Z,26.23
2023-03-01T09:28:35.024Z,21.83
2023-03-01T09:31:02.582Z,21.33
2023-03-01T09:33:30.130Z,26.27
2023-03-01T09:35:57.759Z,20.40
2023-03-01T09:38:26.011Z,23.90
2023-03-01T09:40:52.836Z,27.33
2023-03-01T09:43:56.242Z,25.37
2023-03-01T09:46:21.693Z,21.90
2023-03-01T09:49:01.477Z,22.23
2023-03-01T09:51:29.016Z,25.60
2023-03-01T09:53:56.559Z,23.17
2023-03-01T09:56:36.698Z,25.30
2023-03-01T09:59:05.000Z,20.73
2023-03-01T10:02:06.065Z,25.62
2023-03-01T10:04:42.086Z,22.40
2023-03-01T10:07:12.278Z,24.70
2023-03-01T10:09:39.877Z,21.83
2023-03-01T10:12:13.499Z,21.47
2023-03-01T10:14:52.872Z,25.60
2023-03-01T10:17:32.177Z,46.57
2023-03-01T10:19:59.791Z,27.13
2023-03-01T10:22:30.286Z,22.17
2023-03-01T10:24:57.842Z,30.43
2023-03-01T10:27:25.380Z,23.87
2023-03-01T10:30:07.656Z,23.77
2023-03-01T10:32:35.384Z,25.50
2023-03-01T10:35:02.779Z,25.10
2023-03-01T10:37:31.070Z,23.50
2023-03-01T10:40:04.973Z,22.87
2023-03-01T10:42:32.514Z,21.60
2023-03-01T10:45:19.478Z,23.43
2023-03-01T10:47:47.042Z,22.63
2023-03-01T10:50:23.419Z,26.13
2023-03-01T10:52:59.796Z,21.83
2023-03-01T10:55:29.909Z,21.70
2023-03-01T10:58:21.797Z,22.03
2023-03-01T11:00:55.163Z,19.80
2023-03-01T11:03:35.183Z,23.40
2023-03-01T11:06:05.668Z,20.50
2023-03-01T11:08:44.950Z,22.60
2023-03-01T11:11:31.032Z,21.17
2023-03-01T11:14:26.290Z,20.93
2023-03-01T11:16:44.445Z,22.23
2023-03-01T11:19:11.987Z,22.23
2023-03-01T11:21:42.441Z,21.27
2023-03-01T11:24:13.100Z,23.20
2023-03-01T11:26:40.595Z,22.13
2023-03-01T11:29:08.135Z,20.87
2023-03-01T11:31:36.617Z,22.97
2023-03-01T11:34:06.519Z,23.93
2023-03-01T11:36:37.172Z,23.77
2023-03-01T11:39:11.480Z,21.63
2023-03-01T11:41:39.807Z,22.40
2023-03-01T11:44:13.367Z,22.10
2023-03-01T11:46:57.294Z,21.90
2023-03-01T11:49:42.833Z,21.10
2023-03-01T11:52:18.811Z,22.57
2023-03-01T11:54:51.826Z,20.97
2023-03-01T11:57:44.216Z,17.83
2023-03-01T12:00:33.725Z,23.07
2023-03-01T12:03:10.726Z,22.02
2023-03-01T12:05:51.142Z,20.93
2023-03-01T12:08:21.219Z,23.37
2023-03-01T12:10:54.519Z,23.57
2023-03-01T12:13:43.739Z,19.27
2023-03-01T12:16:23.035Z,22.80
2023-03-01T12:18:57.163Z,20.87
2023-03-01T12:21:42.740Z,22.97
2023-03-01T12:24:19.088Z,21.13
2023-03-01T12:26:58.299Z,20.17
2023-03-01T12:29:25.843Z,20.87
2023-03-01T12:32:11.415Z,23.02
2023-03-01T12:35:07.494Z,20.90
2023-03-01T12:37:44.141Z,20.93
2023-03-01T12:40:35.660Z,22.53
2023-03-01T12:43:22.083Z,20.70
2023-03-01T12:46:08.344Z,20.27
2023-03-01T12:48:50.712Z,20.67
2023-03-01T12:51:18.299Z,23.50
2023-03-01T12:53:45.827Z,20.00
2023-03-01T12:56:13.451Z,19.20
2023-03-01T12:58:49.990Z,20.70
2023-03-01T13:01:23.047Z,22.67
2023-03-01T13:04:28.701Z,20.60
2023-03-01T13:07:17.055Z,21.23
2023-03-01T13:09:50.051Z,20.07
2023-03-01T13:12:35.797Z,21.03
2023-03-01T13:15:03.394Z,22.00
2023-03-01T13:17:30.922Z,18.87
2023-03-01T13:20:01.138Z,21.62
2023-03-01T13:22:28.964Z,22.33
2023-03-01T13:25:02.258Z,25.73
2023-03-01T13:27:30.629Z,20.73
2023-03-01T13:30:01.071Z,22.47
2023-03-01T13:32:43.638Z,19.53
2023-03-01T13:35:01.603Z,21.63
2023-03-01T13:37:29.949Z,22.13
2023-03-01T13:40:00.481Z,22.87
2023-03-01T13:42:36.725Z,19.93
2023-03-01T13:45:04.319Z,20.60
2023-03-01T13:47:31.854Z,19.47
2023-03-01T13:49:59.440Z,20.23
2023-03-01T13:52:38.656Z,22.70
2023-03-01T13:55:14.918Z,18.07
2023-03-01T13:57:42.477Z,18.90
2023-03-01T14:00:28.661Z,19.10
2023-03-01T14:03:06.246Z,20.53
2023-03-01T14:05:31.311Z,19.17
2023-03-01T14:07:58.894Z,19.77
2023-03-01T14:10:28.995Z,17.30
2023-03-01T14:12:58.368Z,19.83
2023-03-01T14:15:36.353Z,18.07
2023-03-01T14:18:22.163Z,17.73
2023-03-01T14:20:50.513Z,19.50
2023-03-01T14:23:20.853Z,15.97
2023-03-01T14:25:50.776Z,18.17
2023-03-01T14:28:27.356Z,18.05
2023-03-01T14:30:54.948Z,16.97
2023-03-01T14:33:28.284Z,17.30
2023-03-01T14:35:59.460Z,17.10
2023-03-01T14:38:35.399Z,16.60
2023-03-01T14:41:04.503Z,16.90
2023-03-01T14:43:30.519Z,17.07
2023-03-01T14:45:58.103Z,17.20
2023-03-01T14:48:25.608Z,17.10
2023-03-01T14:50:53.234Z,17.23
2023-03-01T14:53:23.552Z,17.33
2023-03-01T14:55:53.632Z,15.73
2023-03-01T14:58:21.237Z,16.70
2023-03-01T15:00:48.763Z,16.27
2023-03-01T15:03:16.318Z,16.10
2023-03-01T15:05:43.895Z,16.57
2023-03-01T15:08:13.889Z,18.20
2023-03-01T15:10:41.433Z,17.35
2023-03-01T15:13:14.772Z,17.57
2023-03-01T15:15:46.156Z,17.80
2023-03-01T15:18:13.612Z,15.83
2023-03-01T15:20:41.171Z,18.27
2023-03-01T15:23:08.722Z,16.50
2023-03-01T15:25:36.256Z,15.20
2023-03-01T15:28:03.848Z,17.23
2023-03-01T15:30:34.070Z,15.30
2023-03-01T15:33:25.962Z,15.37
2023-03-01T15:35:55.070Z,16.23
2023-03-01T15:38:27.552Z,19.07
2023-03-01T15:40:55.124Z,15.33
2023-03-01T15:43:40.409Z,13.80
2023-03-01T15:46:08.406Z,15.20
2023-03-01T15:48:35.932Z,17.00
2023-03-01T15:51:03.464Z,13.93
2023-03-01T15:53:31.947Z,18.27
2023-03-01T15:55:59.503Z,14.10
2023-03-01T15:58:27.043Z,15.30
2023-03-01T16:01:02.496Z,14.67
2023-03-01T16:03:25.723Z,13.67
2023-03-01T16:05:53.268Z,18.73
2023-03-01T16:08:20.856Z,14.00
2023-03-01T16:10:49.154Z,12.73
2023-03-01T16:13:17.446Z,16.40
2023-03-01T16:15:45.018Z,11.90
2023-03-01T16:18:12.673Z,15.53
2023-03-01T16:20:40.392Z,15.47
2023-03-01T16:23:08.277Z,15.43
2023-03-01T16:25:36.183Z,11.77
2023-03-01T16:28:10.760Z,13.97
2023-03-01T16:30:39.348Z,12.77
2023-03-01T16:33:15.885Z,11.73
2023-03-01T16:35:37.877Z,11.40
2023-03-01T16:38:07.052Z,13.15
2023-03-01T16:40:34.911Z,13.20
2023-03-01T16:43:05.439Z,24.33
2023-03-01T16:45:42.593Z,14.33
2023-03-01T16:48:09.968Z,11.20
2023-03-01T16:50:38.311Z,13.97
2023-03-01T16:53:05.883Z,15.00
2023-03-01T16:55:33.410Z,13.70
2023-03-01T16:58:00.952Z,12.83
2023-03-01T17:00:28.561Z,12.70
2023-03-01T17:02:56.164Z,12.30
2023-03-01T17:05:23.657Z,15.20
2023-03-01T17:07:51.225Z,14.55
2023-03-01T17:10:18.771Z,13.13
2023-03-01T17:12:46.289Z,14.77
2023-03-01T17:15:14.646Z,14.10
2023-03-01T17:17:42.159Z,14.87
2023-03-01T17:20:09.965Z,16.08
2023-03-01T17:22:37.552Z,16.73
2023-03-01T17:25:05.085Z,14.00
2023-03-01T17:27:32.689Z,13.77
2023-03-01T17:30:00.557Z,15.80
2023-03-01T17:32:28.259Z,14.77
2023-03-01T17:34:55.646Z,14.63
2023-03-01T17:37:24.041Z,17.13
2023-03-01T17:39:51.576Z,15.27
2023-03-01T17:42:19.871Z,15.55
2023-03-01T17:44:48.277Z,14.23
2023-03-01T17:47:15.812Z,16.10
2023-03-01T17:49:43.356Z,16.20
2023-03-01T17:52:11.706Z,12.87
2023-03-01T17:54:39.288Z,13.93
2023-03-01T17:57:06.804Z,13.47
2023-03-01T17:59:34.395Z,16.00
2023-03-01T18:02:02.089Z,13.80
2023-03-01T18:04:29.531Z,14.57
2023-03-01T18:06:57.067Z,16.62
2023-03-01T18:09:24.878Z,12.87
2023-03-01T18:11:52.402Z,16.33
2023-03-01T18:14:21.945Z,15.77
2023-03-01T18:16:49.527Z,14.97
2023-03-01T18:19:17.778Z,16.07
2023-03-01T18:21:45.380Z,13.77
2023-03-01T18:24:12.951Z,15.53
2023-03-01T18:26:40.570Z,14.10
2023-03-01T18:29:09.633Z,13.90
2023-03-01T18:31:37.949Z,15.13
2023-03-01T18:34:05.466Z,16.87
2023-03-01T18:36:34.174Z,16.70
2023-03-01T18:39:04.009Z,15.73
2023-03-01T18:41:31.822Z,14.05
2023-03-01T18:43:59.133Z,14.47
2023-03-01T18:46:26.700Z,18.23
2023-03-01T18:48:54.958Z,15.50
2023-03-01T18:51:28.297Z,14.40
2023-03-01T18:53:55.739Z,14.93
2023-03-01T18:56:23.288Z,22.33
2023-03-01T18:58:50.864Z,16.87
2023-03-01T19:01:18.502Z,18.58
2023-03-01T19:03:45.919Z,17.42
2023-03-01T19:06:13.504Z,17.37
2023-03-01T19:08:41.040Z,14.83
2023-03-01T19:11:08.579Z,13.77
2023-03-01T19:13:36.932Z,13.97
2023-03-01T19:16:10.066Z,13.80
2023-03-01T19:18:37.564Z,14.10
2023-03-01T19:21:05.186Z,16.45
2023-03-01T19:23:35.963Z,14.87
2023-03-01T19:26:03.528Z,12.17
2023-03-01T19:28:31.071Z,15.63
2023-03-01T19:31:01.411Z,13.83
2023-03-01T19:33:28.910Z,14.80
2023-03-01T19:35:56.925Z,13.87
2023-03-01T19:38:24.040Z,14.93
2023-03-01T19:40:51.565Z,22.73
2023-03-01T19:43:19.926Z,28.30
2023-03-01T19:45:47.472Z,30.30
2023-03-01T19:48:15.007Z,28.70
2023-03-01T19:50:42.600Z,31.58
2023-03-01T19:53:10.145Z,23.33
2023-03-01T19:55:37.667Z,23.50
2023-03-01T19:58:05.251Z,21.37
2023-03-01T20:00:32.814Z,20.03
2023-03-01T20:03:00.498Z,23.47
2023-03-01T20:05:27.930Z,16.53
2023-03-01T20:07:55.479Z,21.20
2023-03-01T20:10:23.053Z,27.73
2023-03-01T20:12:51.130Z,27.13
2023-03-01T20:15:18.671Z,30.70
2023-03-01T20:17:46.217Z,31.92
2023-03-01T20:20:13.838Z,30.73
2023-03-01T20:22:41.353Z,25.50
2023-03-01T20:25:09.099Z,17.97
2023-03-01T20:27:36.974Z,19.47
2023-03-01T20:30:04.508Z,17.02
2023-03-01T20:32:32.075Z,16.80
2023-03-01T20:35:00.432Z,17.17
2023-03-01T20:37:27.965Z,14.43
2023-03-01T20:39:55.511Z,17.90
2023-03-01T20:42:23.105Z,26.27
2023-03-01T20:44:50.639Z,22.53
2023-03-01T20:47:18.164Z,23.57
2023-03-01T20:49:45.764Z,20.70
2023-03-01T20:52:13.323Z,22.83
2023-03-01T20:54:40.840Z,27.60
2023-03-01T20:57:08.408Z,28.57
2023-03-01T20:59:35.964Z,42.50
2023-03-01T21:02:03.491Z,25.73
2023-03-01T21:04:31.069Z,22.07
2023-03-01T21:06:58.612Z,19.00
2023-03-01T21:09:26.898Z,17.13
2023-03-01T21:11:54.480Z,13.53
2023-03-01T21:14:22.006Z,17.13
2023-03-01T21:16:49.596Z,15.50
2023-03-01T21:19:17.922Z,16.13
2023-03-01T21:21:46.307Z,17.63
2023-03-01T21:24:14.604Z,24.97
2023-03-01T21:26:42.959Z,34.13
2023-03-01T21:29:10.482Z,30.30
2023-03-01T21:31:38.067Z,29.67
2023-03-01T21:34:05.600Z,24.83
2023-03-01T21:36:33.707Z,85.40
2023-03-01T21:39:00.671Z,57.00
2023-03-01T21:41:29.033Z,21.03
2023-03-01T21:43:57.421Z,12.90
2023-03-01T21:46:24.883Z,14.50
2023-03-01T21:48:53.228Z,18.53
2023-03-01T21:51:20.814Z,24.07
2023-03-01T21:53:48.298Z,28.57
2023-03-01T21:56:18.323Z,36.77
2023-03-01T21:58:45.830Z,32.80
2023-03-01T22:01:16.217Z,13.10
2023-03-01T22:03:46.948Z,17.40
2023-03-01T22:06:14.472Z,10.90
2023-03-01T22:08:41.995Z,14.60
2023-03-01T22:11:09.584Z,21.00
2023-03-01T22:13:37.870Z,20.58
2023-03-01T22:16:05.640Z,21.53
2023-03-01T22:18:33.062Z,18.33
2023-03-01T22:21:09.404Z,20.10
2023-03-01T22:23:37.343Z,20.27
2023-03-01T22:26:04.866Z,20.17
2023-03-01T22:28:33.169Z,14.90
2023-03-01T22:31:06.740Z,14.70
2023-03-01T22:33:34.258Z,12.50
2023-03-01T22:36:01.822Z,13.95
2023-03-01T22:38:29.371Z,11.80
2023-03-01T22:40:59.879Z,10.97
2023-03-01T22:43:27.413Z,14.13
2023-03-01T22:45:55.812Z,18.50
2023-03-01T22:48:23.310Z,15.43
2023-03-01T22:50:50.849Z,15.27
2023-03-01T22:53:18.428Z,12.73
2023-03-01T22:55:45.977Z,15.00
2023-03-01T22:58:13.490Z,10.70
2023-03-01T23:00:41.860Z,15.20
2023-03-01T23:03:09.460Z,12.67
2023-03-01T23:05:36.921Z,15.93
2023-03-01T23:08:05.289Z,12.37
2023-03-01T23:10:32.813Z,13.63
2023-03-01T23:13:00.348Z,14.57
2023-03-01T23:15:28.276Z,10.33
2023-03-01T23:17:55.801Z,13.73
2023-03-01T23:20:24.120Z,11.73
2023-03-01T23:22:51.698Z,14.80
2023-03-01T23:25:19.243Z,11.30
2023-03-01T23:27:46.815Z,11.13
2023-03-01T23:30:14.372Z,11.07
2023-03-01T23:32:41.905Z,12.20
2023-03-01T23:35:09.440Z,10.53
2023-03-01T23:37:37.780Z,11.30
2023-03-01T23:40:05.344Z,9.97
2023-03-01T23:42:35.822Z,11.57
2023-03-01T23:45:03.407Z,12.03
2023-03-01T23:47:30.929Z,9.87
2023-03-01T23:49:58.460Z,13.43
2023-03-01T23:52:26.363Z,11.60
2023-03-01T23:54:53.938Z,12.67
2023-03-01T23:57:22.204Z,9.97
2023-03-01T23:59:49.776Z,11.97
